Memphis, Tennessee
Current Conditions -  °F | °C
As of 1:54 AM on Thursday 18 Dec 2014 (Local Time) from KMEM Reporting Station
Light Rain Light Rain  
Wind Chill: 34°   Ceiling: 8500
Heat Index: 38°   Visibility: 6mi
Dew Point: 34°   Wind: 5mph
Humidity: 86%   Direction: 80°E
Pressure: 30.29"   Gusts: NA
Location:  35.15°N, 90.05°W
Report Text: KMEM 180754Z 08004KT 6SM -RA BR FEW025 OVC085 03/01 A3029 RMK AO2 RAB08E23B50 SLP258 P0000 T00330011 $
Loading
Personal Weather Stations






























Interactive Weather Map New forecast layout! Learn more

10-Day Weather Forecast

Advertisements
Track Severe Weather on mobile